createdAt,value
2023-05-23T00:00:14.247Z,17.96
2023-05-23T00:02:44.858Z,17.96
2023-05-23T00:05:15.438Z,17.93
2023-05-23T00:07:46.174Z,17.90
2023-05-23T00:10:16.437Z,17.85
2023-05-23T00:12:48.324Z,17.84
2023-05-23T00:15:16.917Z,17.83
2023-05-23T00:17:47.067Z,17.80
2023-05-23T00:20:16.219Z,17.80
2023-05-23T00:22:48.457Z,17.77
2023-05-23T00:25:17.586Z,17.74
2023-05-23T00:27:46.432Z,17.70
2023-05-23T00:30:16.243Z,17.66
2023-05-23T00:32:45.649Z,17.62
2023-05-23T00:35:14.715Z,17.58
2023-05-23T00:37:43.904Z,17.54
2023-05-23T00:40:14.672Z,17.53
2023-05-23T00:42:43.722Z,17.52
2023-05-23T00:45:13.530Z,17.45
2023-05-23T00:47:43.156Z,17.45
2023-05-23T00:50:15.771Z,17.44
2023-05-23T00:52:46.478Z,17.41
2023-05-23T00:55:17.108Z,17.39
2023-05-23T00:57:45.752Z,17.38
2023-05-23T01:00:16.240Z,17.35
2023-05-23T01:02:51.371Z,17.29
2023-05-23T01:05:22.916Z,17.24
2023-05-23T01:07:53.644Z,17.21
2023-05-23T01:10:29.522Z,17.22
2023-05-23T01:13:14.825Z,17.20
2023-05-23T01:15:58.622Z,17.20
2023-05-23T01:18:38.343Z,17.18
2023-05-23T01:21:13.772Z,17.15
2023-05-23T01:24:28.947Z,17.13
2023-05-23T01:27:18.806Z,17.06
2023-05-23T01:29:54.446Z,17.06
2023-05-23T01:32:26.432Z,17.03
2023-05-23T01:34:56.244Z,17.05
2023-05-23T01:37:25.397Z,17.01
2023-05-23T01:39:53.933Z,16.98
2023-05-23T01:42:23.524Z,16.98
2023-05-23T01:44:54.122Z,16.94
2023-05-23T01:47:24.110Z,16.93
2023-05-23T01:49:55.556Z,16.90
2023-05-23T01:52:25.310Z,16.88
2023-05-23T01:54:55.585Z,16.83
2023-05-23T01:57:25.642Z,16.81
2023-05-23T01:59:58.390Z,16.78
2023-05-23T02:02:27.628Z,16.77
2023-05-23T02:04:58.720Z,16.70
2023-05-23T02:07:27.285Z,16.68
2023-05-23T02:09:57.106Z,16.61
2023-05-23T02:12:25.695Z,16.62
2023-05-23T02:14:55.838Z,16.61
2023-05-23T02:17:24.500Z,16.58
2023-05-23T02:19:53.036Z,16.58
2023-05-23T02:22:25.747Z,16.57
2023-05-23T02:24:54.502Z,16.58
2023-05-23T02:27:23.132Z,16.57
2023-05-23T02:29:52.540Z,16.54
2023-05-23T02:32:22.354Z,16.49
2023-05-23T02:34:51.046Z,16.47
2023-05-23T02:37:19.935Z,16.48
2023-05-23T02:39:49.632Z,16.46
2023-05-23T02:42:19.619Z,16.46
2023-05-23T02:44:48.093Z,16.44
2023-05-23T02:47:17.763Z,16.41
2023-05-23T02:49:47.726Z,16.39
2023-05-23T02:52:17.020Z,16.37
2023-05-23T02:54:45.807Z,16.34
2023-05-23T02:57:14.940Z,16.30
2023-05-23T02:59:43.626Z,16.31
2023-05-23T03:02:13.113Z,16.29
2023-05-23T03:04:42.241Z,16.28
2023-05-23T03:07:24.533Z,16.26
2023-05-23T03:09:57.527Z,16.27
2023-05-23T03:12:27.144Z,16.24
2023-05-23T03:14:56.390Z,16.20
2023-05-23T03:17:27.232Z,16.16
2023-05-23T03:19:57.351Z,16.13
2023-05-23T03:22:27.770Z,16.12
2023-05-23T03:24:56.327Z,16.11
2023-05-23T03:27:25.617Z,16.07
2023-05-23T03:29:54.177Z,16.05
2023-05-23T03:32:24.336Z,16.04
2023-05-23T03:34:55.265Z,16.03
2023-05-23T03:37:23.772Z,16.05
2023-05-23T03:39:54.150Z,16.03
2023-05-23T03:42:22.636Z,15.98
2023-05-23T03:44:51.767Z,15.96
2023-05-23T03:47:20.197Z,15.94
2023-05-23T03:49:49.092Z,15.93
2023-05-23T03:52:17.821Z,15.93
2023-05-23T03:54:46.832Z,15.91
2023-05-23T03:57:17.135Z,15.93
2023-05-23T03:59:46.334Z,15.92
2023-05-23T04:02:15.362Z,15.91
2023-05-23T04:04:43.953Z,15.95
2023-05-23T04:07:14.801Z,15.96
2023-05-23T04:09:43.320Z,15.97
2023-05-23T04:12:12.648Z,15.96
2023-05-23T04:14:43.590Z,15.97
2023-05-23T04:17:12.083Z,15.99
2023-05-23T04:19:42.514Z,16.07
2023-05-23T04:22:11.089Z,16.12
2023-05-23T04:24:40.069Z,16.17
2023-05-23T04:27:10.577Z,16.21
2023-05-23T04:29:41.536Z,16.23
2023-05-23T04:32:11.456Z,16.21
2023-05-23T04:34:41.296Z,16.22
2023-05-23T04:37:10.412Z,16.24
2023-05-23T04:39:43.181Z,16.23
2023-05-23T04:44:44.601Z,16.29
2023-05-23T04:47:16.071Z,16.34
2023-05-23T04:49:48.782Z,16.36
2023-05-23T04:52:19.144Z,16.37
2023-05-23T04:54:48.884Z,16.41
2023-05-23T04:57:18.314Z,16.43
2023-05-23T04:59:48.604Z,16.44
2023-05-23T05:02:17.900Z,16.44
2023-05-23T05:04:47.424Z,16.47
2023-05-23T05:07:16.824Z,16.49
2023-05-23T05:09:45.278Z,16.48
2023-05-23T05:12:13.788Z,16.52
2023-05-23T05:14:42.300Z,16.54
2023-05-23T05:17:12.965Z,16.51
2023-05-23T05:19:41.532Z,16.49
2023-05-23T05:22:09.970Z,16.53
2023-05-23T05:24:40.399Z,16.48
2023-05-23T05:27:09.612Z,16.49
2023-05-23T05:29:38.258Z,16.52
2023-05-23T05:32:09.185Z,16.55
2023-05-23T05:34:39.067Z,16.53
2023-05-23T05:37:08.002Z,16.55
2023-05-23T05:39:37.102Z,16.53
2023-05-23T05:42:06.158Z,16.54
2023-05-23T05:44:34.639Z,16.58
2023-05-23T05:47:03.666Z,16.54
2023-05-23T05:49:32.139Z,16.56
2023-05-23T05:52:02.551Z,16.53
2023-05-23T05:54:31.038Z,16.59
2023-05-23T05:56:59.570Z,16.56
2023-05-23T05:59:28.693Z,16.53
2023-05-23T06:01:58.333Z,16.52
2023-05-23T06:04:27.434Z,16.50
2023-05-23T06:06:56.430Z,16.48
2023-05-23T06:09:26.769Z,16.40
2023-05-23T06:11:55.243Z,16.44
2023-05-23T06:14:23.727Z,16.40
2023-05-23T06:16:52.782Z,16.46
2023-05-23T06:19:21.374Z,16.50
2023-05-23T06:21:50.507Z,16.54
2023-05-23T06:24:18.992Z,16.53
2023-05-23T06:26:49.956Z,16.53
2023-05-23T06:29:18.497Z,16.52
2023-05-23T06:31:47.607Z,16.54
2023-05-23T06:34:17.528Z,16.49
2023-05-23T06:36:47.094Z,16.53
2023-05-23T06:39:15.611Z,16.54
2023-05-23T06:41:44.848Z,16.56
2023-05-23T06:44:15.333Z,16.58
2023-05-23T06:46:47.450Z,16.58
2023-05-23T06:49:17.173Z,16.63
2023-05-23T06:51:45.868Z,16.66
2023-05-23T06:54:14.977Z,16.66
2023-05-23T06:56:43.499Z,16.63
2023-05-23T06:59:13.421Z,16.60
2023-05-23T07:01:41.971Z,16.53
2023-05-23T07:04:12.232Z,16.53
2023-05-23T07:06:40.979Z,16.59
2023-05-23T07:09:11.953Z,16.64
2023-05-23T07:11:41.310Z,16.58
2023-05-23T07:14:10.352Z,16.59
2023-05-23T07:16:40.248Z,16.60
2023-05-23T07:19:10.028Z,16.60
2023-05-23T07:21:39.074Z,16.56
2023-05-23T07:24:07.855Z,16.61
2023-05-23T07:26:36.422Z,16.62
2023-05-23T07:29:05.439Z,16.60
2023-05-23T07:31:33.935Z,16.56
2023-05-23T07:34:03.842Z,16.58
2023-05-23T07:36:34.501Z,16.59
2023-05-23T07:39:03.719Z,16.63
2023-05-23T07:41:33.242Z,16.62
2023-05-23T07:44:01.663Z,16.64
2023-05-23T07:46:30.243Z,16.67
2023-05-23T07:48:58.738Z,16.67
2023-05-23T07:51:29.161Z,16.78
2023-05-23T07:53:58.213Z,16.85
2023-05-23T07:56:27.680Z,16.92
2023-05-23T07:58:56.712Z,16.97
2023-05-23T08:01:25.668Z,17.06
2023-05-23T08:03:54.180Z,17.10
2023-05-23T08:06:22.622Z,17.07
2023-05-23T08:08:52.862Z,17.14
2023-05-23T08:11:21.888Z,17.22
2023-05-23T08:13:50.319Z,17.25
2023-05-23T08:16:19.065Z,17.27
2023-05-23T08:18:47.579Z,17.29
2023-05-23T08:21:16.039Z,17.22
2023-05-23T08:23:44.601Z,17.29
2023-05-23T08:26:14.430Z,17.34
2023-05-23T08:28:42.963Z,17.41
2023-05-23T08:31:12.218Z,17.43
2023-05-23T08:33:40.728Z,17.51
2023-05-23T08:36:09.779Z,17.57
2023-05-23T08:38:38.363Z,17.60
2023-05-23T08:41:17.333Z,17.61
2023-05-23T08:43:45.865Z,17.59
2023-05-23T08:46:15.781Z,17.65
2023-05-23T08:48:51.858Z,17.67
2023-05-23T08:51:23.577Z,17.74
2023-05-23T08:53:53.730Z,17.74
2023-05-23T08:56:25.904Z,17.72
2023-05-23T08:58:55.496Z,17.74
2023-05-23T09:01:27.157Z,17.73
2023-05-23T09:03:55.900Z,17.73
2023-05-23T09:06:24.940Z,17.73
2023-05-23T09:08:54.181Z,17.77
2023-05-23T09:11:25.239Z,17.70
2023-05-23T09:13:53.802Z,17.64
2023-05-23T09:16:22.558Z,17.59
2023-05-23T09:18:51.179Z,17.60
2023-05-23T09:21:20.898Z,17.59
2023-05-23T09:23:52.134Z,17.57
2023-05-23T09:26:21.289Z,17.66
2023-05-23T09:28:53.103Z,17.67
2023-05-23T09:31:29.491Z,17.63
2023-05-23T09:33:59.821Z,17.66
2023-05-23T09:36:32.692Z,17.58
2023-05-23T09:39:06.264Z,17.56
2023-05-23T09:41:36.087Z,17.55
2023-05-23T09:44:10.892Z,17.51
2023-05-23T09:46:39.751Z,17.55
2023-05-23T09:49:19.848Z,17.64
2023-05-23T09:52:00.500Z,17.68
2023-05-23T09:54:29.700Z,17.76
2023-05-23T09:57:01.833Z,17.83
2023-05-23T09:59:36.198Z,17.90
2023-05-23T10:02:08.494Z,17.96
2023-05-23T10:04:40.036Z,17.92
2023-05-23T10:07:18.680Z,17.94
2023-05-23T10:09:58.759Z,17.97
2023-05-23T10:12:51.338Z,18.01
2023-05-23T10:15:24.828Z,18.00
2023-05-23T10:18:07.891Z,18.01
2023-05-23T10:20:40.842Z,17.97
2023-05-23T10:23:10.086Z,17.99
2023-05-23T10:25:42.209Z,17.99
2023-05-23T10:28:11.513Z,18.01
2023-05-23T10:30:42.571Z,18.05
2023-05-23T10:33:15.608Z,18.03
2023-05-23T10:35:56.286Z,18.05
2023-05-23T10:38:40.018Z,18.11
2023-05-23T10:41:20.611Z,18.08
2023-05-23T10:43:58.374Z,18.06
2023-05-23T10:47:01.379Z,18.08
2023-05-23T10:49:45.009Z,18.08
2023-05-23T10:52:15.630Z,18.05
2023-05-23T10:54:46.576Z,18.08
2023-05-23T10:57:21.853Z,18.05
2023-05-23T10:59:52.712Z,18.06
2023-05-23T11:02:30.613Z,18.11
2023-05-23T11:05:21.134Z,18.17
2023-05-23T11:08:10.934Z,18.20
2023-05-23T11:10:57.138Z,18.14
2023-05-23T11:13:25.807Z,18.07
2023-05-23T11:15:54.532Z,18.02
2023-05-23T11:18:29.131Z,18.05
2023-05-23T11:21:02.822Z,18.04
2023-05-23T11:23:43.324Z,18.11
2023-05-23T11:26:33.380Z,18.18
2023-05-23T11:29:04.084Z,18.23
2023-05-23T11:31:38.851Z,18.27
2023-05-23T11:34:08.771Z,18.17
2023-05-23T11:36:37.647Z,18.19
2023-05-23T11:39:06.564Z,18.21
2023-05-23T11:41:36.344Z,18.26
2023-05-23T11:44:13.424Z,18.18
2023-05-23T11:46:41.992Z,18.12
2023-05-23T11:49:14.750Z,18.15
2023-05-23T11:51:43.303Z,18.26
2023-05-23T11:54:13.359Z,18.23
2023-05-23T11:56:42.730Z,18.26
2023-05-23T11:59:11.792Z,18.32
2023-05-23T12:01:40.236Z,18.29
2023-05-23T12:04:13.682Z,18.36
2023-05-23T12:06:43.691Z,18.43
2023-05-23T12:09:13.752Z,18.44
2023-05-23T12:11:45.224Z,18.46
2023-05-23T12:14:17.929Z,18.43
2023-05-23T12:16:48.412Z,18.45
2023-05-23T12:19:20.253Z,18.48
2023-05-23T12:21:50.960Z,18.43
2023-05-23T12:24:22.276Z,18.35
2023-05-23T12:26:56.621Z,18.38
2023-05-23T12:29:35.013Z,18.40
2023-05-23T12:32:05.659Z,18.40
2023-05-23T12:34:34.304Z,18.44
2023-05-23T12:37:19.046Z,18.38
2023-05-23T12:39:48.511Z,18.42
2023-05-23T12:42:17.097Z,18.30
2023-05-23T12:44:46.180Z,18.31
2023-05-23T12:47:15.172Z,18.26
2023-05-23T12:49:44.899Z,18.22
2023-05-23T12:52:14.903Z,18.17
2023-05-23T12:54:43.393Z,18.19
2023-05-23T12:57:12.987Z,18.15
2023-05-23T12:59:41.804Z,18.08
2023-05-23T13:02:11.848Z,18.10
2023-05-23T13:04:40.338Z,18.12
2023-05-23T13:07:09.219Z,18.10
2023-05-23T13:09:40.038Z,18.11
2023-05-23T13:12:12.197Z,18.09
2023-05-23T13:14:40.727Z,18.04
2023-05-23T13:17:09.950Z,18.05
2023-05-23T13:19:39.734Z,18.04
2023-05-23T13:22:10.651Z,18.07
2023-05-23T13:24:41.879Z,18.08
2023-05-23T13:27:11.035Z,18.10
2023-05-23T13:29:39.473Z,18.11
2023-05-23T13:32:08.675Z,18.15
2023-05-23T13:34:37.696Z,18.12
2023-05-23T13:37:06.774Z,18.07
2023-05-23T13:39:35.384Z,18.07
2023-05-23T13:42:05.653Z,18.07
2023-05-23T13:44:34.122Z,18.05
2023-05-23T13:47:13.972Z,17.96
2023-05-23T13:49:43.111Z,17.95
2023-05-23T13:52:12.286Z,18.00
2023-05-23T13:54:42.213Z,17.97
2023-05-23T13:57:12.042Z,17.97
2023-05-23T13:59:40.549Z,18.01
2023-05-23T14:02:09.641Z,18.03
2023-05-23T14:04:38.268Z,18.06
2023-05-23T14:07:06.815Z,18.01
2023-05-23T14:09:35.314Z,17.94
2023-05-23T14:12:05.456Z,17.90
2023-05-23T14:14:35.903Z,17.85
2023-05-23T14:17:04.587Z,17.76
2023-05-23T14:19:33.521Z,17.69
2023-05-23T14:22:01.936Z,17.60
2023-05-23T14:24:32.001Z,17.55
2023-05-23T14:27:00.872Z,17.59
2023-05-23T14:29:29.726Z,17.55
2023-05-23T14:32:00.988Z,17.49
2023-05-23T14:34:30.187Z,17.57
2023-05-23T14:36:58.836Z,17.56
2023-05-23T14:39:29.054Z,17.56
2023-05-23T14:41:58.362Z,17.59
2023-05-23T14:44:28.174Z,17.70
2023-05-23T14:46:59.154Z,17.73
2023-05-23T14:49:28.124Z,17.81
2023-05-23T14:51:56.645Z,17.85
2023-05-23T14:54:25.149Z,17.91
2023-05-23T14:56:53.708Z,17.97
2023-05-23T14:59:22.112Z,18.02
2023-05-23T15:01:51.522Z,18.10
2023-05-23T15:04:21.576Z,18.15
2023-05-23T15:06:51.039Z,18.18
2023-05-23T15:09:20.282Z,18.19
2023-05-23T15:11:49.558Z,18.17
2023-05-23T15:14:18.356Z,18.15
2023-05-23T15:16:51.020Z,18.07
2023-05-23T15:19:23.189Z,18.01
2023-05-23T15:21:52.065Z,17.90
2023-05-23T15:24:20.751Z,17.84
2023-05-23T15:26:49.598Z,17.80
2023-05-23T15:29:18.839Z,17.83
2023-05-23T15:31:47.423Z,17.84
2023-05-23T15:34:16.249Z,17.85
2023-05-23T15:36:46.930Z,17.87
2023-05-23T15:39:16.970Z,17.82
2023-05-23T15:41:45.593Z,17.71
2023-05-23T15:44:18.032Z,17.74
2023-05-23T15:46:46.564Z,17.67
2023-05-23T15:49:25.001Z,17.65
2023-05-23T15:51:56.597Z,17.62
2023-05-23T15:54:25.027Z,17.56
2023-05-23T15:56:53.492Z,17.60
2023-05-23T15:59:22.079Z,17.68
2023-05-23T16:01:50.612Z,17.66
2023-05-23T16:04:19.861Z,17.71
2023-05-23T16:06:48.426Z,17.67
2023-05-23T16:09:18.722Z,17.72
2023-05-23T16:11:47.260Z,17.76
2023-05-23T16:14:16.280Z,17.78
2023-05-23T16:16:44.985Z,17.80
2023-05-23T16:19:14.660Z,17.77
2023-05-23T16:21:44.210Z,17.83
2023-05-23T16:24:13.148Z,17.81
2023-05-23T16:26:43.522Z,17.83
2023-05-23T16:29:12.513Z,17.70
2023-05-23T16:31:41.259Z,17.68
2023-05-23T16:34:10.530Z,17.66
2023-05-23T16:36:39.563Z,17.65
2023-05-23T16:39:08.466Z,17.69
2023-05-23T16:41:37.043Z,17.60
2023-05-23T16:44:07.854Z,17.68
2023-05-23T16:46:36.605Z,17.72
2023-05-23T16:49:06.194Z,17.71
2023-05-23T16:51:35.235Z,17.72
2023-05-23T16:54:04.001Z,17.71
2023-05-23T16:56:32.432Z,17.62
2023-05-23T16:59:01.006Z,17.56
2023-05-23T17:01:31.285Z,17.51
2023-05-23T17:03:59.887Z,17.43
2023-05-23T17:06:28.516Z,17.40
2023-05-23T17:08:57.731Z,17.40
2023-05-23T17:11:27.140Z,17.39
2023-05-23T17:13:55.658Z,17.49
2023-05-23T17:16:24.161Z,17.58
2023-05-23T17:18:54.138Z,17.54
2023-05-23T17:21:22.674Z,17.53
2023-05-23T17:23:51.362Z,17.52
2023-05-23T17:26:19.980Z,17.54
2023-05-23T17:28:48.458Z,17.52
2023-05-23T17:31:17.110Z,17.55
2023-05-23T17:33:47.056Z,17.53
2023-05-23T17:36:16.964Z,17.38
2023-05-23T17:38:45.625Z,17.40
2023-05-23T17:41:14.637Z,17.46
2023-05-23T17:43:43.805Z,17.46
2023-05-23T17:46:12.304Z,17.42
2023-05-23T17:48:47.597Z,17.38
2023-05-23T17:51:18.511Z,17.23
2023-05-23T17:53:47.024Z,17.19
2023-05-23T17:56:15.754Z,17.14
2023-05-23T17:58:44.562Z,17.12
2023-05-23T18:01:13.790Z,17.09
2023-05-23T18:03:42.433Z,17.07
2023-05-23T18:06:11.589Z,17.02
2023-05-23T18:08:42.714Z,16.93
2023-05-23T18:11:11.786Z,16.86
2023-05-23T18:13:40.693Z,16.86
2023-05-23T18:16:09.636Z,16.86
2023-05-23T18:18:38.084Z,16.81
2023-05-23T18:21:07.383Z,16.81
2023-05-23T18:23:35.962Z,16.75
2023-05-23T18:26:07.426Z,16.68
2023-05-23T18:28:36.006Z,16.67
2023-05-23T18:31:04.819Z,16.65
2023-05-23T18:33:33.526Z,16.51
2023-05-23T18:36:02.227Z,16.48
2023-05-23T18:38:30.971Z,16.40
2023-05-23T18:40:59.591Z,16.34
2023-05-23T18:43:29.677Z,16.32
2023-05-23T18:45:58.292Z,16.25
2023-05-23T18:48:27.323Z,16.21
2023-05-23T18:50:55.843Z,16.11
2023-05-23T18:53:24.569Z,16.00
2023-05-23T18:55:53.001Z,15.95
2023-05-23T18:58:21.864Z,15.90
2023-05-23T19:00:51.811Z,15.81
2023-05-23T19:03:21.268Z,15.81
2023-05-23T19:05:50.208Z,15.79
2023-05-23T19:08:19.111Z,15.82
2023-05-23T19:10:47.590Z,15.81
2023-05-23T19:13:16.123Z,15.70
2023-05-23T19:15:45.789Z,15.62
2023-05-23T19:18:15.752Z,15.56
2023-05-23T19:20:44.633Z,15.52
2023-05-23T19:23:13.234Z,15.46
2023-05-23T19:25:42.456Z,15.41
2023-05-23T19:28:11.082Z,15.27
2023-05-23T19:30:41.092Z,15.23
2023-05-23T19:33:10.826Z,15.21
2023-05-23T19:35:41.164Z,15.15
2023-05-23T19:38:09.705Z,15.15
2023-05-23T19:40:38.240Z,15.06
2023-05-23T19:43:07.750Z,15.05
2023-05-23T19:45:37.342Z,15.05
2023-05-23T19:48:06.667Z,15.03
2023-05-23T19:50:35.386Z,15.00
2023-05-23T19:53:05.892Z,14.94
2023-05-23T19:55:34.390Z,14.89
2023-05-23T19:58:03.214Z,14.82
2023-05-23T20:00:32.122Z,14.77
2023-05-23T20:03:00.884Z,14.75
2023-05-23T20:05:29.774Z,14.71
2023-05-23T20:07:58.401Z,14.65
2023-05-23T20:10:28.513Z,14.58
2023-05-23T20:12:57.026Z,14.55
2023-05-23T20:15:38.749Z,14.51
2023-05-23T20:18:08.871Z,14.45
2023-05-23T20:20:37.474Z,14.40
2023-05-23T20:23:07.259Z,14.35
2023-05-23T20:25:37.220Z,14.33
2023-05-23T20:28:05.796Z,14.26
2023-05-23T20:30:34.513Z,14.19
2023-05-23T20:33:03.188Z,14.16
2023-05-23T20:35:31.898Z,14.12
2023-05-23T20:38:00.503Z,14.07
2023-05-23T20:40:29.856Z,13.98
2023-05-23T20:43:04.916Z,13.94
2023-05-23T20:45:33.899Z,13.91
2023-05-23T20:48:02.476Z,13.89
2023-05-23T20:50:34.200Z,13.85
2023-05-23T20:53:03.484Z,13.79
2023-05-23T20:55:35.468Z,13.77
2023-05-23T20:58:05.555Z,13.72
2023-05-23T21:00:34.469Z,13.66
2023-05-23T21:03:03.474Z,13.63
2023-05-23T21:05:32.638Z,13.59
2023-05-23T21:08:01.258Z,13.55
2023-05-23T21:10:30.541Z,13.53
2023-05-23T21:13:01.127Z,13.50
2023-05-23T21:15:31.460Z,13.47
2023-05-23T21:18:00.494Z,13.42
2023-05-23T21:20:29.528Z,13.37
2023-05-23T21:22:58.508Z,13.32
2023-05-23T21:25:28.114Z,13.29
2023-05-23T21:27:56.562Z,13.26
2023-05-23T21:30:26.435Z,13.23
2023-05-23T21:32:56.448Z,13.20
2023-05-23T21:35:25.298Z,13.19
2023-05-23T21:37:55.107Z,13.14
2023-05-23T21:40:25.821Z,13.09
2023-05-23T21:42:54.990Z,13.06
2023-05-23T21:45:23.670Z,13.03
2023-05-23T21:47:52.197Z,13.02
2023-05-23T21:50:22.795Z,13.00
2023-05-23T21:52:51.370Z,12.99
2023-05-23T21:55:20.535Z,12.95
2023-05-23T21:57:49.585Z,12.91
2023-05-23T22:00:20.484Z,12.86
2023-05-23T22:02:49.202Z,12.85
2023-05-23T22:05:18.300Z,12.83
2023-05-23T22:07:48.599Z,12.80
2023-05-23T22:10:17.178Z,12.77
2023-05-23T22:12:45.852Z,12.72
2023-05-23T22:15:14.297Z,12.72
2023-05-23T22:17:43.862Z,12.69
2023-05-23T22:20:14.817Z,12.65
2023-05-23T22:22:44.135Z,12.63
2023-05-23T22:25:14.031Z,12.56
2023-05-23T22:27:42.500Z,12.52
2023-05-23T22:30:13.162Z,12.48
2023-05-23T22:32:41.739Z,12.48
2023-05-23T22:35:12.382Z,12.48
2023-05-23T22:37:41.440Z,12.45
2023-05-23T22:40:11.338Z,12.37
2023-05-23T22:42:42.204Z,12.32
2023-05-23T22:45:12.124Z,12.29
2023-05-23T22:47:42.294Z,12.27
2023-05-23T22:50:12.568Z,12.25
2023-05-23T22:52:41.520Z,12.25
2023-05-23T22:55:12.145Z,12.24
2023-05-23T22:57:41.961Z,12.22
2023-05-23T23:00:13.663Z,12.19
2023-05-23T23:02:45.255Z,12.17
2023-05-23T23:05:15.394Z,12.16
2023-05-23T23:07:44.203Z,12.15
2023-05-23T23:10:13.304Z,12.13
2023-05-23T23:12:44.550Z,12.08
2023-05-23T23:15:14.216Z,12.04
2023-05-23T23:17:43.383Z,11.99
2023-05-23T23:20:13.629Z,11.93
2023-05-23T23:22:42.213Z,11.94
2023-05-23T23:25:11.676Z,11.92
2023-05-23T23:27:40.819Z,11.92
2023-05-23T23:30:12.715Z,11.91
2023-05-23T23:32:41.347Z,11.89
2023-05-23T23:35:10.600Z,11.88
2023-05-23T23:37:39.446Z,11.86
2023-05-23T23:40:11.359Z,11.84
2023-05-23T23:42:39.890Z,11.81
2023-05-23T23:45:11.554Z,11.77
2023-05-23T23:47:40.105Z,11.73
2023-05-23T23:50:13.858Z,11.71
2023-05-23T23:52:42.907Z,11.69
2023-05-23T23:55:11.899Z,11.68
2023-05-23T23:57:40.771Z,11.68
